Time;durP1;ratioP1;P1;durP2;ratioP2;P2;SDS_P1;SDS_P2;PMS_P1;PMS_P2;Temp;Humidity;BMP_temperature;BMP_pressure;BME280_temperature;BME280_humidity;BME280_pressure;Samples;Min_cycle;Max_cycle;Signal;HPM_P1;HPM_P2
2023/08/15 00:00:54;;;;;;;5.00;4.60;;;;;;;21.60;100.00;99522.66;6039628;23;20165;-77
2023/08/15 00:03:22;;;;;;;5.38;4.88;;;;;;;21.53;100.00;99519.47;6039748;23;20191;-78
2023/08/15 00:05:49;;;;;;;5.35;4.95;;;;;;;21.47;100.00;99517.91;6039541;23;20177;-78
2023/08/15 00:08:16;;;;;;;5.00;4.60;;;;;;;21.38;100.00;99517.75;6039476;23;20182;-77
2023/08/15 00:10:44;;;;;;;6.25;4.80;;;;;;;21.31;100.00;99519.22;6040011;23;20194;-78
2023/08/15 00:13:11;;;;;;;5.20;4.80;;;;;;;21.27;100.00;99520.91;6014427;23;20189;-78
2023/08/15 00:15:39;;;;;;;5.25;4.85;;;;;;;21.18;100.00;99520.75;6039526;23;20166;-77
2023/08/15 00:18:08;;;;;;;5.30;4.80;;;;;;;21.13;100.00;99514.53;6039636;23;20232;-78
2023/08/15 00:20:37;;;;;;;5.65;4.82;;;;;;;21.07;100.00;99511.88;6039644;23;20178;-77
2023/08/15 00:23:04;;;;;;;5.03;4.65;;;;;;;21.06;100.00;99512.97;6014504;23;20174;-77
2023/08/15 00:25:33;;;;;;;5.30;4.82;;;;;;;21.03;100.00;99512.75;6039528;23;20174;-78
2023/08/15 00:28:01;;;;;;;5.32;4.82;;;;;;;20.97;100.00;99509.25;6039129;23;20197;-78
2023/08/15 00:30:32;;;;;;;5.80;5.00;;;;;;;20.94;100.00;99511.75;6014818;23;20168;-77
2023/08/15 00:33:01;;;;;;;5.07;4.78;;;;;;;20.89;100.00;99518.06;6039028;23;20592;-78
2023/08/15 00:35:28;;;;;;;5.43;4.97;;;;;;;20.83;100.00;99512.97;6039224;23;20170;-78
2023/08/15 00:37:56;;;;;;;5.03;4.72;;;;;;;20.79;100.00;99507.28;6039030;23;20170;-77
2023/08/15 00:40:24;;;;;;;5.60;5.20;;;;;;;20.74;100.00;99512.78;6038929;23;20229;-79
2023/08/15 00:42:53;;;;;;;5.28;4.88;;;;;;;20.74;100.00;99509.25;6014342;23;20560;-80
2023/08/15 00:45:21;;;;;;;5.50;5.00;;;;;;;20.73;100.00;99510.34;5990655;23;20620;-77
2023/08/15 00:47:50;;;;;;;5.03;4.63;;;;;;;20.71;100.00;99507.13;6013809;23;20181;-78
2023/08/15 00:50:19;;;;;;;5.20;4.70;;;;;;;20.70;100.00;99508.22;6039028;23;20515;-78
2023/08/15 00:52:46;;;;;;;5.25;4.85;;;;;;;20.63;100.00;99508.53;6038924;23;20225;-78
2023/08/15 00:55:15;;;;;;;5.95;4.80;;;;;;;20.56;100.00;99508.91;6013777;23;20584;-78
2023/08/15 00:57:42;;;;;;;5.47;5.00;;;;;;;20.54;100.00;99504.84;5990707;23;20181;-81
2023/08/15 01:00:11;;;;;;;5.65;5.25;;;;;;;20.49;100.00;99502.16;6038955;23;20166;-78
2023/08/15 01:02:39;;;;;;;5.30;4.80;;;;;;;20.48;100.00;99501.34;6038811;23;20195;-77
2023/08/15 01:05:07;;;;;;;5.50;5.10;;;;;;;20.39;100.00;99499.56;6014001;23;20162;-76
2023/08/15 01:07:35;;;;;;;5.40;5.00;;;;;;;20.37;100.00;99496.31;6013509;23;20174;-78
2023/08/15 01:10:03;;;;;;;5.75;5.25;;;;;;;20.33;100.00;99487.91;6038550;23;20551;-80
2023/08/15 01:12:38;;;;;;;5.43;4.95;;;;;;;20.27;100.00;99486.28;6038910;23;20269;-76
2023/08/15 01:15:08;;;;;;;5.15;4.75;;;;;;;20.33;100.00;99489.81;5991022;23;20174;-76
2023/08/15 01:17:54;;;;;;;4.78;4.47;;;;;;;20.31;100.00;99495.53;6014314;23;20222;-76
2023/08/15 01:20:32;;;;;;;5.85;5.40;;;;;;;20.23;100.00;99483.34;6039120;23;20239;-76
2023/08/15 01:23:06;;;;;;;5.72;5.15;;;;;;;20.22;100.00;99480.91;6014090;23;20228;-77
2023/08/15 01:25:41;;;;;;;5.30;4.90;;;;;;;20.26;100.00;99483.84;5990788;23;20178;-76
2023/08/15 01:28:12;;;;;;;5.82;5.32;;;;;;;20.24;100.00;99481.44;5990242;23;20485;-75
2023/08/15 01:30:51;;;;;;;5.93;5.43;;;;;;;20.26;100.00;99478.41;6038671;23;20518;-76
2023/08/15 01:33:38;;;;;;;6.05;5.55;;;;;;;20.29;100.00;99480.56;6008162;23;20600;-75
2023/08/15 01:36:09;;;;;;;5.80;5.20;;;;;;;20.30;100.00;99474.84;6008779;23;20165;-77
2023/08/15 01:38:44;;;;;;;6.05;5.45;;;;;;;20.40;100.00;99471.22;6008693;23;20561;-77
2023/08/15 01:41:14;;;;;;;5.82;5.43;;;;;;;20.39;100.00;99472.34;6010049;23;20165;-76
2023/08/15 01:43:43;;;;;;;5.80;5.30;;;;;;;20.40;100.00;99469.31;6010208;23;20255;-76
2023/08/15 01:46:11;;;;;;;5.80;5.30;;;;;;;20.40;100.00;99471.22;5985435;23;20175;-78
2023/08/15 01:48:40;;;;;;;5.65;5.18;;;;;;;20.39;100.00;99477.78;6008467;23;20561;-76
2023/08/15 01:51:10;;;;;;;5.85;5.40;;;;;;;20.42;100.00;99482.66;6010242;23;20173;-78
2023/08/15 01:53:37;;;;;;;5.93;5.53;;;;;;;20.39;100.00;99477.78;6009821;23;20246;-76
2023/08/15 01:56:05;;;;;;;5.82;5.32;;;;;;;20.34;100.00;99478.66;6008956;23;20178;-76
2023/08/15 01:58:33;;;;;;;6.38;5.40;;;;;;;20.28;100.00;99476.22;6008695;23;20247;-76
2023/08/15 02:01:02;;;;;;;6.10;5.57;;;;;;;20.22;100.00;99480.91;6008420;23;20179;-76
2023/08/15 02:03:30;;;;;;;5.72;5.32;;;;;;;20.17;100.00;99478.22;6010044;23;20190;-75
2023/08/15 02:05:58;;;;;;;6.65;6.15;;;;;;;20.09;100.00;99474.22;6010271;23;20171;-77
2023/08/15 02:08:26;;;;;;;6.07;5.50;;;;;;;19.96;100.00;99476.78;6010027;23;20178;-75
2023/08/15 02:10:54;;;;;;;6.68;5.93;;;;;;;19.84;100.00;99468.97;6010588;23;20245;-75
2023/08/15 02:13:22;;;;;;;6.18;5.78;;;;;;;19.68;100.00;99472.94;6009834;23;20252;-75
2023/08/15 02:15:50;;;;;;;6.50;5.90;;;;;;;19.54;100.00;99467.31;6010249;23;20174;-75
2023/08/15 02:18:17;;;;;;;6.40;5.90;;;;;;;19.40;100.00;99465.47;6008462;23;20182;-74
2023/08/15 02:20:45;;;;;;;6.40;6.00;;;;;;;19.31;100.00;99467.97;6010122;23;20201;-75
2023/08/15 02:23:13;;;;;;;7.00;6.40;;;;;;;19.19;100.00;99459.34;6009726;23;20253;-75
2023/08/15 02:25:42;;;;;;;6.60;6.20;;;;;;;19.13;100.00;99465.91;6009645;23;20566;-75
2023/08/15 02:28:11;;;;;;;6.60;6.10;;;;;;;19.05;100.00;99467.28;6009765;23;20260;-75
2023/08/15 02:30:38;;;;;;;7.15;6.65;;;;;;;18.92;100.00;99463.28;6009931;23;20218;-75
2023/08/15 02:33:06;;;;;;;6.67;6.17;;;;;;;18.80;100.00;99459.25;6031914;23;20197;-75
2023/08/15 02:35:40;;;;;;;6.93;6.33;;;;;;;18.70;100.00;99460.09;6038229;23;20231;-76
2023/08/15 02:38:08;;;;;;;6.87;6.27;;;;;;;18.60;100.00;99454.72;6038138;23;20510;-75
2023/08/15 02:40:37;;;;;;;6.73;6.13;;;;;;;18.55;100.00;99452.00;6038347;23;20218;-74
2023/08/15 02:43:05;;;;;;;6.97;6.37;;;;;;;18.50;100.00;99454.69;6038156;23;20247;-76
2023/08/15 02:45:34;;;;;;;7.30;6.80;;;;;;;18.49;100.00;99453.88;6038293;23;20240;-75
2023/08/15 02:48:02;;;;;;;7.23;6.50;;;;;;;18.37;100.00;99453.38;6037904;23;20191;-77
2023/08/15 02:50:30;;;;;;;6.77;6.37;;;;;;;18.38;100.00;99457.69;6038063;23;20195;-75
2023/08/15 02:52:59;;;;;;;7.07;6.57;;;;;;;18.34;100.00;99456.63;6037916;23;20282;-78
2023/08/15 02:55:27;;;;;;;7.27;6.77;;;;;;;18.19;100.00;99458.56;6038101;23;20172;-76
2023/08/15 02:57:55;;;;;;;7.50;6.80;;;;;;;18.12;100.00;99458.00;6013111;23;20179;-75
2023/08/15 03:00:23;;;;;;;7.20;6.70;;;;;;;18.09;100.00;99458.56;6038048;23;20248;-76
2023/08/15 03:02:52;;;;;;;7.40;6.73;;;;;;;18.07;100.00;99466.16;6038130;23;20184;-75
2023/08/15 03:05:20;;;;;;;7.60;7.00;;;;;;;18.04;100.00;99464.81;6012964;23;20627;-77
2023/08/15 03:07:48;;;;;;;6.77;6.27;;;;;;;18.00;100.00;99469.16;6038548;23;20338;-77
2023/08/15 03:10:16;;;;;;;6.93;6.43;;;;;;;17.95;100.00;99463.72;6038096;23;20508;-76
2023/08/15 03:12:46;;;;;;;7.03;6.43;;;;;;;17.93;100.00;99468.59;6012894;23;20179;-75
2023/08/15 03:15:14;;;;;;;8.00;7.30;;;;;;;17.91;100.00;99470.78;6012861;23;20177;-75
2023/08/15 03:17:42;;;;;;;7.20;6.70;;;;;;;17.85;100.00;99467.25;6012838;23;20576;-76
2023/08/15 03:20:10;;;;;;;7.37;6.77;;;;;;;17.83;100.00;99468.59;6037730;23;20610;-75
2023/08/15 03:22:38;;;;;;;7.80;7.10;;;;;;;17.77;100.00;99465.09;6012513;23;20650;-75
2023/08/15 03:25:08;;;;;;;7.53;7.03;;;;;;;17.76;100.00;99468.06;6012130;23;20177;-75
2023/08/15 03:27:36;;;;;;;7.07;6.57;;;;;;;17.75;100.00;99471.84;6012094;23;20260;-76
2023/08/15 03:30:04;;;;;;;7.90;7.30;;;;;;;17.70;100.00;99474.56;6012253;23;20182;-76
2023/08/15 03:32:32;;;;;;;7.40;6.80;;;;;;;17.74;100.00;99478.34;5997534;23;20213;-76
2023/08/15 03:35:00;;;;;;;7.60;6.90;;;;;;;17.69;100.00;99479.16;6010903;23;20217;-76
2023/08/15 03:37:27;;;;;;;8.00;7.30;;;;;;;17.65;100.00;99479.97;5986104;23;20184;-75
2023/08/15 03:39:57;;;;;;;7.30;6.70;;;;;;;17.59;100.00;99479.13;5986270;23;20172;-76
2023/08/15 03:42:24;;;;;;;8.03;7.33;;;;;;;17.50;100.00;99481.53;5985997;23;20278;-76
2023/08/15 03:44:52;;;;;;;7.57;6.97;;;;;;;17.48;100.00;99486.41;5986228;23;20196;-76
2023/08/15 03:47:19;;;;;;;8.13;7.33;;;;;;;17.45;100.00;99492.34;6011190;23;20169;-76
2023/08/15 03:49:47;;;;;;;8.00;7.40;;;;;;;17.45;100.00;99484.22;6011003;23;20189;-75
2023/08/15 03:52:14;;;;;;;7.83;7.23;;;;;;;17.45;100.00;99484.22;5986039;23;20233;-76
2023/08/15 03:54:41;;;;;;;8.27;7.57;;;;;;;17.44;100.00;99488.03;5985902;23;20197;-77
2023/08/15 03:57:10;;;;;;;8.43;7.73;;;;;;;17.45;100.00;99489.66;5963233;23;20171;-76
2023/08/15 03:59:37;;;;;;;8.03;7.43;;;;;;;17.48;100.00;99489.13;6010954;23;20166;-75
2023/08/15 04:02:05;;;;;;;7.93;7.33;;;;;;;17.45;100.00;99481.50;5985666;23;20189;-76
2023/08/15 04:04:33;;;;;;;8.10;7.50;;;;;;;17.48;100.00;99482.91;6010909;23;20695;-75
2023/08/15 04:07:00;;;;;;;7.97;7.27;;;;;;;17.49;100.00;99495.34;6010770;23;20632;-75
2023/08/15 04:09:28;;;;;;;8.50;7.80;;;;;;;17.51;100.00;99494.00;5985948;23;20183;-75
2023/08/15 04:11:56;;;;;;;8.30;7.70;;;;;;;17.51;100.00;99502.13;6010572;23;20689;-77
2023/08/15 04:14:23;;;;;;;7.97;7.47;;;;;;;17.48;100.00;99502.66;5985724;23;20210;-76
2023/08/15 04:16:51;;;;;;;8.40;7.60;;;;;;;17.43;100.00;99502.66;6010709;23;20210;-77
2023/08/15 04:19:18;;;;;;;7.90;7.30;;;;;;;17.44;100.00;99496.16;6010597;23;20525;-79
2023/08/15 04:21:45;;;;;;;8.20;7.50;;;;;;;17.50;100.00;99510.50;5985639;23;20176;-76
2023/08/15 04:24:12;;;;;;;8.67;7.97;;;;;;;17.56;100.00;99506.75;5985708;23;20284;-75
2023/08/15 04:26:40;;;;;;;7.83;7.13;;;;;;;17.57;100.00;99492.94;6010879;23;20167;-76
2023/08/15 04:29:08;;;;;;;7.87;7.37;;;;;;;17.60;100.00;99495.13;5985824;23;20175;-75
2023/08/15 04:31:35;;;;;;;8.37;7.77;;;;;;;17.67;100.00;99494.88;6015268;23;20580;-76
2023/08/15 04:34:04;;;;;;;8.67;8.07;;;;;;;17.73;100.00;99504.63;6014136;23;20279;-76
2023/08/15 04:36:32;;;;;;;8.00;7.50;;;;;;;17.80;100.00;99501.66;6014042;23;20703;-76
2023/08/15 04:38:59;;;;;;;8.27;7.50;;;;;;;17.83;100.00;99501.94;6038910;23;20182;-76
2023/08/15 04:41:28;;;;;;;8.53;7.73;;;;;;;17.96;100.00;99506.81;6013768;23;20184;-79
2023/08/15 04:43:55;;;;;;;7.97;7.43;;;;;;;18.09;100.00;99501.94;6038380;23;20196;-75
2023/08/15 04:46:23;;;;;;;8.53;7.93;;;;;;;18.24;100.00;99501.94;6014130;23;20180;-76
2023/08/15 04:48:50;;;;;;;7.97;7.37;;;;;;;18.38;100.00;99506.50;6039056;23;20168;-76
2023/08/15 04:51:18;;;;;;;8.27;7.57;;;;;;;18.58;100.00;99497.56;6014030;23;20177;-76
2023/08/15 04:53:46;;;;;;;7.77;7.27;;;;;;;18.70;100.00;99500.81;6038962;23;20249;-76
2023/08/15 04:56:14;;;;;;;8.60;7.80;;;;;;;18.86;100.00;99496.13;6039246;23;20168;-75
2023/08/15 04:58:44;;;;;;;8.33;7.73;;;;;;;19.00;100.00;99493.63;6013673;23;20171;-75
2023/08/15 05:01:12;;;;;;;8.33;7.70;;;;;;;19.14;100.00;99492.75;6013952;23;20627;-75
2023/08/15 05:03:41;;;;;;;8.13;7.43;;;;;;;19.13;100.00;99490.34;6037483;23;20179;-75
2023/08/15 05:06:08;;;;;;;8.00;7.40;;;;;;;19.29;100.00;99486.44;6013807;23;20213;-75
2023/08/15 05:08:36;;;;;;;7.73;7.23;;;;;;;19.41;100.00;99484.19;6013656;23;20181;-75
2023/08/15 05:11:04;;;;;;;7.77;7.20;;;;;;;19.55;100.00;99481.72;6013559;23;20176;-75
2023/08/15 05:13:32;;;;;;;7.57;6.97;;;;;;;19.72;100.00;99493.81;6013193;23;20206;-76
2023/08/15 05:16:00;;;;;;;6.97;6.47;;;;;;;19.96;100.00;99487.66;6013228;23;20255;-76
2023/08/15 05:18:29;;;;;;;7.07;6.57;;;;;;;20.13;100.00;99493.50;6013242;23;20181;-81
2023/08/15 05:20:58;;;;;;;7.80;7.20;;;;;;;20.31;100.00;99500.97;5990486;23;20252;-78
2023/08/15 05:23:26;;;;;;;7.35;6.75;;;;;;;20.45;100.00;99495.66;6038464;23;20179;-77
2023/08/15 05:25:55;;;;;;;7.73;7.13;;;;;;;20.61;100.00;99491.72;6038706;23;20610;-77
2023/08/15 05:28:22;;;;;;;7.90;7.20;;;;;;;20.79;100.00;99496.41;6013134;23;20556;-78
2023/08/15 05:30:50;;;;;;;7.47;6.90;;;;;;;20.95;100.00;99497.06;6013186;23;20231;-78
2023/08/15 05:33:19;;;;;;;8.05;7.35;;;;;;;21.16;100.00;99494.91;6008376;23;20296;-77
2023/08/15 05:35:48;;;;;;;7.55;7.05;;;;;;;21.28;100.00;99495.28;6008850;23;20277;-78
2023/08/15 05:38:16;;;;;;;7.78;7.00;;;;;;;21.44;100.00;99493.97;6008988;23;20705;-77
2023/08/15 05:40:44;;;;;;;8.10;7.38;;;;;;;21.60;100.00;99500.84;5985813;23;20174;-77
2023/08/15 05:43:12;;;;;;;7.97;7.38;;;;;;;21.81;100.00;99501.34;6010128;23;20177;-79
2023/08/15 05:45:39;;;;;;;8.18;7.43;;;;;;;22.01;100.00;99501.06;6010433;23;20178;-78
2023/08/15 05:48:07;;;;;;;7.10;6.50;;;;;;;22.25;100.00;99501.75;6010122;23;20566;-78
2023/08/15 05:50:38;;;;;;;7.15;6.65;;;;;;;22.52;100.00;99502.91;6010464;23;20159;-77
2023/08/15 05:53:05;;;;;;;7.28;6.78;;;;;;;22.82;100.00;99503.16;6010147;23;20170;-77
2023/08/15 05:55:32;;;;;;;7.35;6.80;;;;;;;23.09;100.00;99502.38;6009917;23;20216;-78
2023/08/15 05:58:00;;;;;;;7.55;6.95;;;;;;;23.48;100.00;99501.00;6010539;23;20175;-77
2023/08/15 06:00:28;;;;;;;6.78;6.20;;;;;;;23.68;100.00;99500.56;6010240;23;20174;-78
2023/08/15 06:02:56;;;;;;;7.07;6.47;;;;;;;23.88;100.00;99500.09;6010075;23;20166;-78
2023/08/15 06:05:24;;;;;;;7.22;6.63;;;;;;;24.11;100.00;99495.41;6010158;23;20174;-77
2023/08/15 06:07:51;;;;;;;7.15;6.60;;;;;;;24.19;100.00;99502.09;6010017;23;20724;-78
2023/08/15 06:10:18;;;;;;;7.30;6.57;;;;;;;24.33;100.00;99497.34;6009849;23;20524;-77
2023/08/15 06:12:45;;;;;;;6.80;6.30;;;;;;;24.42;100.00;99495.47;6009676;23;20170;-77
2023/08/15 06:15:14;;;;;;;6.93;6.43;;;;;;;24.51;100.00;99499.88;6009682;23;20533;-78
2023/08/15 06:17:42;;;;;;;6.72;6.22;;;;;;;24.68;100.00;99492.88;6008459;23;20208;-77
2023/08/15 06:20:11;;;;;;;7.07;6.47;;;;;;;24.67;100.00;99494.78;6009701;23;20184;-77
2023/08/15 06:22:39;;;;;;;6.88;6.38;;;;;;;24.76;100.00;99495.63;6009811;23;20170;-78
2023/08/15 06:25:07;;;;;;;6.75;6.18;;;;;;;24.83;100.00;99497.91;6010252;23;20488;-77
2023/08/15 06:27:35;;;;;;;6.75;6.28;;;;;;;24.95;100.00;99493.50;6009746;23;20241;-78
2023/08/15 06:30:02;;;;;;;6.57;6.07;;;;;;;25.10;100.00;99497.72;6009871;23;20692;-78
2023/08/15 06:32:33;;;;;;;7.18;6.68;;;;;;;25.16;100.00;99490.94;6024989;23;20213;-78
2023/08/15 06:35:03;;;;;;;6.53;6.05;;;;;;;25.24;100.00;99494.84;6013530;23;20232;-78
2023/08/15 06:37:30;;;;;;;6.40;5.90;;;;;;;25.30;100.00;99488.88;6013912;23;20188;-78
2023/08/15 06:39:58;;;;;;;7.10;6.50;;;;;;;25.41;100.00;99494.88;6038203;23;20646;-79
2023/08/15 06:42:25;;;;;;;6.63;6.22;;;;;;;25.53;100.00;99488.75;6038047;23;20165;-78
2023/08/15 06:45:11;;;;;;;7.45;6.55;;;;;;;25.70;100.00;99495.09;6038114;23;20544;-78
2023/08/15 06:47:39;;;;;;;6.95;6.30;;;;;;;25.78;100.00;99493.47;6013908;23;20168;-79
2023/08/15 06:50:08;;;;;;;6.80;6.07;;;;;;;25.85;100.00;99494.59;6038218;23;20166;-79
2023/08/15 06:52:35;;;;;;;6.88;6.28;;;;;;;25.90;100.00;99493.63;6038092;23;20577;-79
2023/08/15 06:55:06;;;;;;;7.13;6.43;;;;;;;26.02;100.00;99493.78;6038129;23;20268;-79
2023/08/15 06:57:34;;;;;;;6.70;6.18;;;;;;;26.04;100.00;99485.22;6038203;23;20611;-79
2023/08/15 07:00:02;;;;;;;6.55;6.05;;;;;;;26.23;100.00;99491.19;6038109;23;20611;-80
2023/08/15 07:02:31;;;;;;;6.55;6.05;;;;;;;26.28;100.00;99491.03;6037958;23;20176;-79
2023/08/15 07:04:58;;;;;;;6.25;5.75;;;;;;;26.35;100.00;99487.78;6013039;23;20608;-80
2023/08/15 07:07:26;;;;;;;6.20;5.70;;;;;;;26.48;100.00;99493.06;6039242;23;20170;-79
2023/08/15 07:09:54;;;;;;;6.53;6.00;;;;;;;26.59;100.00;99490.78;6038903;23;20540;-80
2023/08/15 07:12:21;;;;;;;6.18;5.68;;;;;;;26.59;100.00;99488.84;6037045;23;20532;-79
2023/08/15 07:14:49;;;;;;;6.40;5.80;;;;;;;26.58;100.00;99495.47;6039079;23;20529;-79
2023/08/15 07:17:18;;;;;;;6.47;5.93;;;;;;;26.71;100.00;99491.69;6039759;23;20188;-80
2023/08/15 07:19:46;;;;;;;6.32;5.78;;;;;;;26.75;100.00;99500.09;6039705;23;20166;-79
2023/08/15 07:22:13;;;;;;;6.68;6.07;;;;;;;26.94;100.00;99495.03;6039778;23;20619;-79
2023/08/15 07:24:42;;;;;;;6.40;5.80;;;;;;;27.02;100.00;99496.91;6013016;23;20593;-78
2023/08/15 07:27:09;;;;;;;6.40;5.88;;;;;;;27.15;100.00;99489.59;6039296;23;20166;-78
2023/08/15 07:29:37;;;;;;;6.30;5.80;;;;;;;27.21;100.00;99485.50;6039163;23;20176;-80
2023/08/15 07:32:06;;;;;;;6.72;6.22;;;;;;;27.34;100.00;99480.91;6038959;23;20644;-78
2023/08/15 07:34:33;;;;;;;6.65;6.05;;;;;;;27.37;100.00;99486.53;6038631;23;20190;-79
2023/08/15 07:37:01;;;;;;;6.07;5.68;;;;;;;27.40;100.00;99494.09;6039441;23;20174;-79
2023/08/15 07:39:29;;;;;;;6.45;5.95;;;;;;;27.45;100.00;99485.66;6039295;23;20166;-79
2023/08/15 07:41:58;;;;;;;7.50;5.57;;;;;;;27.51;100.00;99491.81;6039420;23;20232;-79
2023/08/15 07:44:27;;;;;;;6.38;5.88;;;;;;;27.54;100.00;99483.69;6038822;23;20225;-79
2023/08/15 07:46:54;;;;;;;6.50;5.90;;;;;;;27.67;100.00;99489.28;6039287;23;20528;-79
2023/08/15 07:49:21;;;;;;;6.10;5.60;;;;;;;27.76;100.00;99490.81;6039301;23;20170;-79
2023/08/15 07:51:52;;;;;;;6.63;6.00;;;;;;;27.73;100.00;99491.47;6039354;23;20196;-79
2023/08/15 07:54:20;;;;;;;6.20;5.80;;;;;;;27.85;100.00;99486.03;6039211;23;20194;-82
2023/08/15 07:56:48;;;;;;;6.20;5.57;;;;;;;27.92;100.00;99478.03;6039311;23;20171;-79
2023/08/15 07:59:15;;;;;;;5.80;5.40;;;;;;;28.00;100.00;99488.13;6038858;23;20687;-80
2023/08/15 08:01:43;;;;;;;7.35;6.60;;;;;;;28.12;100.00;99487.44;6037822;23;20654;-80
2023/08/15 08:04:10;;;;;;;6.15;5.72;;;;;;;28.08;100.00;99480.16;6038369;23;20181;-78
2023/08/15 08:06:38;;;;;;;6.38;5.80;;;;;;;28.25;100.00;99488.25;6037209;23;20170;-78
2023/08/15 08:09:08;;;;;;;5.90;5.45;;;;;;;28.36;100.00;99481.19;6036828;23;20167;-79
2023/08/15 08:11:35;;;;;;;6.03;5.53;;;;;;;28.43;100.00;99476.72;6037882;23;20173;-81
2023/08/15 08:14:03;;;;;;;6.72;6.15;;;;;;;28.51;100.00;99475.00;6036204;23;20172;-81
2023/08/15 08:16:31;;;;;;;6.00;5.50;;;;;;;28.64;100.00;99479.41;6039019;23;20166;-81
2023/08/15 08:18:58;;;;;;;6.10;5.60;;;;;;;28.70;100.00;99485.47;6039647;23;20189;-81
2023/08/15 08:21:26;;;;;;;6.03;5.63;;;;;;;28.86;100.00;99475.41;6038683;23;20252;-80
2023/08/15 08:23:55;;;;;;;5.93;5.43;;;;;;;28.86;100.00;99478.97;6039964;23;20166;-80
2023/08/15 08:26:23;;;;;;;5.82;5.43;;;;;;;28.95;100.00;99484.38;6039809;23;20174;-80
2023/08/15 08:28:50;;;;;;;6.18;5.50;;;;;;;28.92;100.00;99478.75;6039556;23;20170;-80
2023/08/15 08:31:17;;;;;;;5.90;5.40;;;;;;;28.92;100.00;99493.34;6039044;23;20261;-81
2023/08/15 08:33:44;;;;;;;6.72;6.00;;;;;;;28.96;100.00;99496.22;6039715;23;20185;-80
2023/08/15 08:36:10;;;;;;;6.30;5.90;;;;;;;28.99;100.00;99492.75;6039794;23;20245;-80
2023/08/15 08:38:37;;;;;;;6.60;6.10;;;;;;;29.08;100.00;99488.75;6039576;23;20170;-80
2023/08/15 08:41:04;;;;;;;6.45;5.93;;;;;;;29.11;100.00;99495.53;6038985;23;20212;-80
2023/08/15 08:43:33;;;;;;;6.35;5.80;;;;;;;29.16;100.00;99490.56;6039235;23;20655;-77
2023/08/15 08:46:00;;;;;;;6.13;5.60;;;;;;;29.17;100.00;99485.84;6038888;23;20229;-78
2023/08/15 08:48:27;;;;;;;6.30;5.80;;;;;;;29.20;100.00;99488.75;6014232;23;20173;-78
2023/08/15 08:50:54;;;;;;;6.85;6.20;;;;;;;29.01;100.00;99485.78;6014389;23;20169;-78
2023/08/15 08:53:21;;;;;;;6.50;6.00;;;;;;;29.14;100.00;99481.03;6013983;23;20208;-82
2023/08/15 08:55:48;;;;;;;6.03;5.50;;;;;;;29.30;100.00;99480.00;6039059;23;20189;-79
2023/08/15 08:58:15;;;;;;;5.60;5.20;;;;;;;29.41;100.00;99479.53;6038960;23;20170;-79
2023/08/15 09:00:42;;;;;;;5.93;5.43;;;;;;;29.51;100.00;99484.56;6014113;23;20170;-80
2023/08/15 09:03:09;;;;;;;6.20;5.70;;;;;;;29.40;100.00;99475.16;6014127;23;20276;-79
2023/08/15 09:05:37;;;;;;;6.28;5.88;;;;;;;29.39;100.00;99479.09;6038764;23;20170;-79
2023/08/15 09:08:04;;;;;;;6.90;5.70;;;;;;;29.37;100.00;99476.66;6038891;23;20655;-79
2023/08/15 09:10:32;;;;;;;6.05;5.65;;;;;;;29.41;100.00;99463.78;6038686;23;20193;-78
2023/08/15 09:13:00;;;;;;;6.38;5.97;;;;;;;29.52;100.00;99466.88;6039012;23;20193;-79
2023/08/15 09:15:27;;;;;;;6.30;5.80;;;;;;;29.58;100.00;99459.97;6038773;23;20268;-79
2023/08/15 09:18:01;;;;;;;6.38;5.80;;;;;;;29.63;100.00;99459.72;6038780;23;20288;-81
2023/08/15 09:20:28;;;;;;;6.38;5.80;;;;;;;29.55;100.00;99464.22;6013074;23;20679;-81
2023/08/15 09:22:57;;;;;;;6.15;5.65;;;;;;;29.67;100.00;99461.44;6038765;23;20158;-79
2023/08/15 09:25:27;;;;;;;6.75;5.97;;;;;;;29.75;100.00;99448.63;6038362;23;20252;-79
2023/08/15 09:27:54;;;;;;;6.68;6.00;;;;;;;29.84;100.00;99462.28;6039030;23;20172;-80
2023/08/15 09:30:22;;;;;;;5.85;5.45;;;;;;;29.88;100.00;99458.50;6038316;23;20535;-79
2023/08/15 09:32:49;;;;;;;6.68;6.07;;;;;;;30.03;100.00;99452.22;6038166;23;20193;-79
2023/08/15 09:35:18;;;;;;;5.90;5.50;;;;;;;30.18;99.89;99454.22;6038274;23;20216;-81
2023/08/15 09:37:47;;;;;;;6.43;5.93;;;;;;;30.29;99.96;99448.94;6038603;23;20189;-79
2023/08/15 09:40:22;;;;;;;6.25;5.68;;;;;;;30.37;100.00;99450.75;6038310;23;20166;-79
2023/08/15 09:42:51;;;;;;;5.88;5.47;;;;;;;30.43;96.29;99443.78;6038396;23;20158;-80
2023/08/15 09:45:19;;;;;;;6.95;5.55;;;;;;;30.53;96.52;99451.59;6013671;23;20575;-81
2023/08/15 09:47:49;;;;;;;6.35;5.75;;;;;;;30.70;98.44;99447.69;6038458;23;20166;-80
2023/08/15 09:50:19;;;;;;;6.00;5.40;;;;;;;30.80;94.88;99441.56;6038520;23;20150;-80
2023/08/15 09:52:46;;;;;;;5.97;5.50;;;;;;;30.85;95.42;99435.78;6037831;23;20161;-79
2023/08/15 09:55:20;;;;;;;6.25;5.75;;;;;;;30.95;93.47;99438.00;6038175;23;20190;-78
2023/08/15 09:57:49;;;;;;;6.03;5.43;;;;;;;31.16;95.35;99428.63;6013483;23;20170;-79
2023/08/15 10:00:17;;;;;;;6.15;5.70;;;;;;;31.22;90.94;99441.00;6037954;23;20189;-81
2023/08/15 10:02:52;;;;;;;5.78;5.28;;;;;;;31.29;88.07;99430.91;6037142;23;20218;-77
2023/08/15 10:05:21;;;;;;;5.40;5.10;;;;;;;31.34;78.14;99436.16;6013023;23;20584;-78
2023/08/15 10:07:49;;;;;;;5.22;4.82;;;;;;;31.41;72.82;99430.75;6037681;23;20226;-79
2023/08/15 10:10:18;;;;;;;5.68;5.20;;;;;;;31.50;72.13;99430.53;6037809;23;20178;-79
2023/08/15 10:12:48;;;;;;;6.05;5.45;;;;;;;31.59;73.44;99427.63;6037660;23;20543;-78
2023/08/15 10:15:16;;;;;;;5.50;5.05;;;;;;;31.74;72.49;99427.53;6013174;23;20860;-78
2023/08/15 10:17:43;;;;;;;7.15;5.80;;;;;;;31.83;72.18;99427.28;6037716;23;20166;-78
2023/08/15 10:20:15;;;;;;;6.13;5.13;;;;;;;31.87;70.80;99428.16;6037422;23;20162;-78
2023/08/15 10:22:43;;;;;;;6.88;5.30;;;;;;;32.07;69.44;99426.97;6013017;23;20170;-78
2023/08/15 10:25:31;;;;;;;6.05;5.53;;;;;;;31.95;69.47;99429.13;6037662;23;20197;-79
2023/08/15 10:27:58;;;;;;;5.32;4.82;;;;;;;32.05;66.54;99428.53;6037617;23;20160;-80
2023/08/15 10:30:29;;;;;;;5.82;5.32;;;;;;;32.15;68.22;99431.50;6037605;23;20166;-78
2023/08/15 10:33:01;;;;;;;5.82;5.43;;;;;;;32.30;68.41;99432.56;6037519;23;20198;-80
2023/08/15 10:35:32;;;;;;;6.05;5.45;;;;;;;32.41;67.38;99427.22;6037720;23;20212;-77
2023/08/15 10:38:13;;;;;;;5.70;5.30;;;;;;;32.46;68.88;99429.69;6037566;23;20147;-79
2023/08/15 10:40:43;;;;;;;5.65;5.20;;;;;;;32.36;67.02;99427.53;6037150;23;20191;-80
2023/08/15 10:43:12;;;;;;;5.72;5.32;;;;;;;32.42;67.63;99429.63;6037234;23;20246;-81
2023/08/15 10:45:41;;;;;;;5.63;5.20;;;;;;;32.43;65.71;99427.66;6037581;23;20177;-77
2023/08/15 10:48:09;;;;;;;5.97;5.50;;;;;;;32.44;64.01;99432.81;6037305;23;20169;-79
2023/08/15 10:50:43;;;;;;;6.47;5.40;;;;;;;32.55;64.95;99425.47;6037392;23;20173;-79
2023/08/15 10:53:10;;;;;;;6.40;5.72;;;;;;;32.58;65.41;99418.38;6037222;23;20515;-79
2023/08/15 10:55:39;;;;;;;5.82;5.28;;;;;;;32.57;63.92;99416.81;6037254;23;20194;-78
2023/08/15 10:58:08;;;;;;;5.97;5.38;;;;;;;32.51;63.75;99418.28;6012110;23;20496;-77
2023/08/15 11:00:36;;;;;;;6.70;5.40;;;;;;;32.57;65.86;99419.56;6037333;23;20166;-78
2023/08/15 11:03:03;;;;;;;6.32;5.90;;;;;;;32.67;65.20;99419.75;6037061;23;20612;-79
2023/08/15 11:05:31;;;;;;;5.75;5.35;;;;;;;32.55;64.70;99425.47;6037395;23;20627;-77
2023/08/15 11:08:13;;;;;;;6.55;5.90;;;;;;;32.75;64.18;99418.72;6037154;23;20260;-81
2023/08/15 11:10:49;;;;;;;6.32;5.75;;;;;;;32.65;62.67;99421.31;6037349;23;20214;-79
2023/08/15 11:13:17;;;;;;;6.93;5.65;;;;;;;32.69;62.99;99425.75;6037245;23;20611;-78
2023/08/15 11:15:44;;;;;;;6.47;5.88;;;;;;;32.74;62.87;99428.22;6037462;23;20584;-79
2023/08/15 11:18:20;;;;;;;6.07;5.65;;;;;;;32.78;64.25;99424.69;6012743;23;20165;-78
2023/08/15 11:20:50;;;;;;;5.95;5.45;;;;;;;32.81;64.39;99418.38;6037510;23;20217;-79
2023/08/15 11:23:19;;;;;;;6.68;5.70;;;;;;;32.86;63.25;99412.50;6037701;23;20182;-77
2023/08/15 11:25:46;;;;;;;5.80;5.30;;;;;;;32.86;61.84;99413.31;6037707;23;20248;-77
2023/08/15 11:28:13;;;;;;;6.03;5.53;;;;;;;32.95;62.22;99418.59;6037662;23;20166;-77
2023/08/15 11:30:41;;;;;;;6.13;5.70;;;;;;;33.00;61.87;99421.84;6037722;23;20253;-79
2023/08/15 11:33:09;;;;;;;5.95;5.38;;;;;;;33.05;60.12;99416.00;6007913;23;20237;-79